METAR AND TAF INFORMATION
METAR FOR AGGN
ADDS - METARS form results

(2154 UTC 20 February 2020)
Data provider http://aviationweather.gov/metar/data/
 
Forecast for: AGGN (GIZO/NUSATUPE , SB)
Text: TAF AGGN 201720Z 2018/2118 25010KT 9999 -SHRA FEW016 BKN100
Forecast period: 1800 UTC 20 February 2020 to 1800 UTC 21 February 2020
Forecast type: FROM: standard forecast or significant change
Winds: from the WSW (250 degrees) at 12 MPH (10 knots; 5.1 m/s)
Visibility: 6 or more miles 10+ km)
Ceiling: 10000 feet AGL
Clouds: few clouds at 1600 feet AGL
broken clouds at 10000 feet AGL
Weather: -SHRA  (light rain showers)
Text: PROB40 INTER 2018/2102 5000 TSSH SCT015 FEW015CB BKN026 Q 1007 1009 1009 1007
Forecast period: 1800 UTC 20 February 2020 to 0200 UTC 21 February 2020
Forecast type: TEMPORARY: The following changes expected for less than half the time period
Visibility: 3 miles (5 km)
Ceiling: 2600 feet AGL
Clouds: scattered clouds at 1500 feet AGL
few clouds at 1500 feet AGL
broken clouds at 2600 feet AGL
Weather: SH TS  (showers, thunderstorm)

 AIRPORT MAP

 RUNWAY INFORMATION
Runway 14 Runway length 3609 ft Runway width 0 ft
Runway elevation 9 ft Runway displaced threshold 0 ft Runway heading 0
Runway 32 Runway length 3609 ft Runway width 0 ft
Runway elevation 14 ft Runway displaced threshold 0 ft Runway heading 0

 AIRPORT FREQUENCIES

 AIRPORT NEAR NAVIGATION AIDS



Powered by Virtual Airlines Manager [v2.6.2]